createdAt,value
2023-03-08T00:01:30.469Z,15.57
2023-03-08T00:03:58.678Z,12.48
2023-03-08T00:06:26.873Z,14.30
2023-03-08T00:08:58.390Z,14.65
2023-03-08T00:11:26.635Z,13.43
2023-03-08T00:13:55.500Z,15.53
2023-03-08T00:16:23.287Z,14.27
2023-03-08T00:18:51.034Z,15.70
2023-03-08T00:21:19.339Z,12.77
2023-03-08T00:23:47.320Z,15.53
2023-03-08T00:26:15.251Z,12.98
2023-03-08T00:28:43.212Z,14.80
2023-03-08T00:31:12.599Z,15.10
2023-03-08T00:33:40.842Z,17.50
2023-03-08T00:36:10.764Z,16.58
2023-03-08T00:38:38.745Z,14.90
2023-03-08T00:41:07.196Z,14.27
2023-03-08T00:43:35.015Z,15.38
2023-03-08T00:46:04.520Z,15.50
2023-03-08T00:48:32.260Z,17.00
2023-03-08T00:50:59.959Z,16.13
2023-03-08T00:53:27.701Z,16.70
2023-03-08T00:55:56.946Z,16.57
2023-03-08T00:58:25.307Z,14.07
2023-03-08T01:00:53.467Z,15.90
2023-03-08T01:03:24.371Z,19.63
2023-03-08T01:05:54.094Z,17.27
2023-03-08T01:08:22.542Z,19.65
2023-03-08T01:10:51.109Z,17.85
2023-03-08T01:13:19.285Z,17.13
2023-03-08T01:15:47.412Z,23.23
2023-03-08T01:18:15.092Z,19.23
2023-03-08T01:20:43.080Z,21.38
2023-03-08T01:23:11.013Z,20.38
2023-03-08T01:25:38.612Z,18.55
2023-03-08T01:28:06.308Z,18.17
2023-03-08T01:30:33.943Z,19.05
2023-03-08T01:33:01.580Z,18.50
2023-03-08T01:35:29.258Z,19.80
2023-03-08T01:37:56.953Z,20.92
2023-03-08T01:40:24.731Z,22.25
2023-03-08T01:42:52.378Z,18.70
2023-03-08T01:45:38.856Z,20.08
2023-03-08T01:48:06.690Z,21.13
2023-03-08T01:50:54.541Z,20.45
2023-03-08T01:53:22.402Z,22.60
2023-03-08T01:55:50.025Z,21.23
2023-03-08T01:58:17.999Z,20.52
2023-03-08T02:00:45.704Z,22.50
2023-03-08T02:03:13.657Z,23.05
2023-03-08T02:05:43.316Z,19.67
2023-03-08T02:08:20.865Z,23.55
2023-03-08T02:10:50.549Z,22.63
2023-03-08T02:13:20.365Z,23.08
2023-03-08T02:15:49.770Z,24.20
2023-03-08T02:18:19.670Z,25.98
2023-03-08T02:20:47.320Z,26.08
2023-03-08T02:23:22.698Z,22.23
2023-03-08T02:25:54.605Z,25.80
2023-03-08T02:28:23.514Z,22.05
2023-03-08T02:30:53.957Z,28.37
2023-03-08T02:33:21.727Z,25.50
2023-03-08T02:35:50.933Z,20.85
2023-03-08T02:38:19.232Z,23.40
2023-03-08T02:40:47.106Z,22.75
2023-03-08T02:43:14.882Z,22.52
2023-03-08T02:45:42.502Z,23.25
2023-03-08T02:48:10.386Z,23.27
2023-03-08T02:50:38.125Z,19.40
2023-03-08T02:53:06.085Z,20.60
2023-03-08T02:55:36.360Z,20.58
2023-03-08T02:58:09.564Z,19.80
2023-03-08T03:00:37.307Z,21.48
2023-03-08T03:03:05.225Z,20.15
2023-03-08T03:05:32.816Z,18.73
2023-03-08T03:08:03.198Z,19.75
2023-03-08T03:10:31.174Z,15.77
2023-03-08T03:12:59.001Z,19.17
2023-03-08T03:15:30.421Z,18.75
2023-03-08T03:18:00.149Z,18.52
2023-03-08T03:20:27.810Z,22.90
2023-03-08T03:22:55.415Z,19.23
2023-03-08T03:25:28.791Z,21.35
2023-03-08T03:27:57.458Z,18.67
2023-03-08T03:30:28.014Z,20.60
2023-03-08T03:32:55.733Z,19.67
2023-03-08T03:35:29.003Z,18.47
2023-03-08T03:37:56.797Z,22.15
2023-03-08T03:40:24.858Z,16.80
2023-03-08T03:42:57.235Z,21.07
2023-03-08T03:45:25.404Z,15.63
2023-03-08T03:47:53.750Z,16.13
2023-03-08T03:50:21.412Z,16.30
2023-03-08T03:53:00.458Z,17.02
2023-03-08T03:55:29.266Z,17.87
2023-03-08T03:57:57.220Z,18.05
2023-03-08T04:00:24.954Z,15.13
2023-03-08T04:03:04.378Z,14.93
2023-03-08T04:05:33.528Z,13.38
2023-03-08T04:08:01.280Z,15.18
2023-03-08T04:10:32.619Z,15.05
2023-03-08T04:13:00.892Z,13.90
2023-03-08T04:15:29.126Z,13.23
2023-03-08T04:17:59.268Z,16.10
2023-03-08T04:20:29.872Z,13.85
2023-03-08T04:22:59.940Z,14.90
2023-03-08T04:25:33.440Z,15.05
2023-03-08T04:28:02.080Z,14.25
2023-03-08T04:30:30.699Z,13.32
2023-03-08T04:32:59.540Z,14.65
2023-03-08T04:35:34.937Z,17.00
2023-03-08T04:38:03.844Z,15.85
2023-03-08T04:40:31.542Z,15.15
2023-03-08T04:43:03.446Z,13.77
2023-03-08T04:45:38.712Z,13.38
2023-03-08T04:48:11.243Z,13.90
2023-03-08T04:50:41.816Z,13.93
2023-03-08T04:53:10.740Z,14.33
2023-03-08T04:55:38.510Z,13.43
2023-03-08T04:58:06.581Z,15.03
2023-03-08T05:00:34.247Z,17.80
2023-03-08T05:03:02.056Z,12.05
2023-03-08T05:05:30.020Z,12.98
2023-03-08T05:08:05.315Z,15.30
2023-03-08T05:10:34.740Z,13.82
2023-03-08T05:13:02.387Z,15.88
2023-03-08T05:15:30.059Z,17.15
2023-03-08T05:18:00.409Z,14.87
2023-03-08T05:20:28.707Z,14.40
2023-03-08T05:22:59.321Z,13.98
2023-03-08T05:25:35.952Z,14.40
2023-03-08T05:28:03.674Z,13.32
2023-03-08T05:30:31.646Z,15.57
2023-03-08T05:32:59.803Z,20.05
2023-03-08T05:35:27.718Z,15.35
2023-03-08T05:37:56.726Z,16.90
2023-03-08T05:40:24.964Z,17.58
2023-03-08T05:42:55.243Z,14.00
2023-03-08T05:45:24.666Z,15.95
2023-03-08T05:47:53.502Z,16.07
2023-03-08T05:50:21.136Z,13.98
2023-03-08T05:52:51.253Z,14.20
2023-03-08T05:55:23.361Z,13.10
2023-03-08T05:57:51.524Z,13.35
2023-03-08T06:00:19.431Z,17.30
2023-03-08T06:02:51.845Z,15.67
2023-03-08T06:05:21.324Z,16.17
2023-03-08T06:07:51.060Z,16.08
2023-03-08T06:10:19.262Z,15.65
2023-03-08T06:12:47.115Z,15.00
2023-03-08T06:15:17.820Z,13.65
2023-03-08T06:17:45.770Z,16.67
2023-03-08T06:20:17.361Z,13.27
2023-03-08T06:22:48.616Z,13.68
2023-03-08T06:25:16.418Z,13.90
2023-03-08T06:27:44.864Z,13.25
2023-03-08T06:30:23.868Z,18.15
2023-03-08T06:32:52.861Z,14.82
2023-03-08T06:35:20.689Z,15.63
2023-03-08T06:37:54.685Z,17.10
2023-03-08T06:40:22.535Z,17.15
2023-03-08T06:42:50.197Z,16.48
2023-03-08T06:45:17.869Z,16.02
2023-03-08T06:47:46.031Z,18.02
2023-03-08T06:50:14.673Z,17.83
2023-03-08T06:52:45.371Z,17.75
2023-03-08T06:55:14.390Z,16.00
2023-03-08T06:57:42.524Z,18.27
2023-03-08T07:00:11.503Z,15.82
2023-03-08T07:02:39.176Z,14.23
2023-03-08T07:05:06.928Z,20.83
2023-03-08T07:07:35.775Z,14.82
2023-03-08T07:10:04.475Z,23.83
2023-03-08T07:12:32.381Z,22.73
2023-03-08T07:15:00.847Z,22.80
2023-03-08T07:17:28.500Z,22.93
2023-03-08T07:19:56.131Z,26.30
2023-03-08T07:22:23.832Z,19.42
2023-03-08T07:24:51.449Z,24.98
2023-03-08T07:27:19.090Z,19.17
2023-03-08T07:29:46.747Z,21.88
2023-03-08T07:32:14.499Z,25.58
2023-03-08T07:34:42.267Z,25.38
2023-03-08T07:37:16.909Z,26.13
2023-03-08T07:39:44.557Z,25.23
2023-03-08T07:42:12.239Z,28.25
2023-03-08T07:44:40.479Z,22.90
2023-03-08T07:47:08.573Z,23.55
2023-03-08T07:49:36.177Z,28.10
2023-03-08T07:52:03.829Z,30.67
2023-03-08T07:54:31.490Z,24.08
2023-03-08T07:56:59.217Z,24.10
2023-03-08T07:59:27.016Z,24.23
2023-03-08T08:01:54.675Z,28.23
2023-03-08T08:04:23.396Z,28.15
2023-03-08T08:06:51.096Z,24.83
2023-03-08T08:09:18.939Z,25.55
2023-03-08T08:11:46.611Z,21.20
2023-03-08T08:14:14.251Z,22.73
2023-03-08T08:16:41.965Z,23.17
2023-03-08T08:19:12.367Z,23.98
2023-03-08T08:21:40.049Z,22.90
2023-03-08T08:24:08.044Z,22.48
2023-03-08T08:26:35.675Z,24.40
2023-03-08T08:29:03.365Z,24.35
2023-03-08T08:31:31.386Z,25.50
2023-03-08T08:33:59.475Z,23.38
2023-03-08T08:36:27.164Z,23.95
2023-03-08T08:38:55.007Z,26.70
2023-03-08T08:41:23.192Z,22.42
2023-03-08T08:43:51.232Z,23.95
2023-03-08T08:46:18.901Z,31.50
2023-03-08T08:48:46.616Z,21.85
2023-03-08T08:51:14.782Z,25.88
2023-03-08T08:53:44.167Z,27.60
2023-03-08T08:56:26.635Z,24.95
2023-03-08T08:58:57.430Z,23.37
2023-03-08T09:01:26.402Z,25.75
2023-03-08T09:03:54.148Z,22.73
2023-03-08T09:06:22.241Z,26.27
2023-03-08T09:08:50.947Z,24.95
2023-03-08T09:11:18.734Z,22.85
2023-03-08T09:13:46.390Z,27.47
2023-03-08T09:16:21.633Z,25.13
2023-03-08T09:18:49.656Z,26.42
2023-03-08T09:21:17.391Z,29.45
2023-03-08T09:23:45.284Z,29.38
2023-03-08T09:26:12.930Z,25.30
2023-03-08T09:28:40.836Z,34.80
2023-03-08T09:31:14.993Z,30.63
2023-03-08T09:33:48.356Z,31.60
2023-03-08T09:36:16.472Z,30.63
2023-03-08T09:38:44.385Z,32.47
2023-03-08T09:41:25.840Z,27.45
2023-03-08T09:44:12.200Z,29.95
2023-03-08T09:46:49.082Z,26.67
2023-03-08T09:49:37.217Z,31.02
2023-03-08T09:52:11.004Z,30.70
2023-03-08T09:54:39.533Z,26.38
2023-03-08T09:57:11.952Z,30.27
2023-03-08T09:59:54.026Z,29.08
2023-03-08T10:02:21.665Z,30.57
2023-03-08T10:05:02.484Z,27.33
2023-03-08T10:08:01.767Z,34.85
2023-03-08T10:10:48.037Z,27.75
2023-03-08T10:13:15.680Z,27.23
2023-03-08T10:15:46.504Z,29.83
2023-03-08T10:18:36.633Z,25.55
2023-03-08T10:21:04.365Z,32.07
2023-03-08T10:23:33.706Z,31.73
2023-03-08T10:26:02.926Z,29.05
2023-03-08T10:28:30.603Z,35.58
2023-03-08T10:30:59.596Z,36.57
2023-03-08T10:33:31.146Z,28.05
2023-03-08T10:36:03.792Z,33.63
2023-03-08T10:38:32.946Z,30.70
2023-03-08T10:41:01.906Z,29.15
2023-03-08T10:43:32.602Z,30.57
2023-03-08T10:46:20.571Z,30.27
2023-03-08T10:48:48.704Z,30.77
2023-03-08T10:51:26.917Z,23.88
2023-03-08T10:53:58.434Z,23.77
2023-03-08T10:56:29.159Z,27.03
2023-03-08T10:58:57.765Z,23.83
2023-03-08T11:01:27.362Z,22.45
2023-03-08T11:04:07.215Z,22.67
2023-03-08T11:06:35.412Z,29.23
2023-03-08T11:09:04.661Z,36.28
2023-03-08T11:11:41.201Z,36.47
2023-03-08T11:14:10.488Z,34.85
2023-03-08T11:16:38.129Z,33.55
2023-03-08T11:19:23.858Z,33.37
2023-03-08T11:22:06.567Z,34.40
2023-03-08T11:24:52.970Z,35.42
2023-03-08T11:27:23.402Z,32.55
2023-03-08T11:30:01.186Z,34.28
2023-03-08T11:32:58.621Z,31.17
2023-03-08T11:35:46.633Z,32.20
2023-03-08T11:38:20.402Z,28.50
2023-03-08T11:40:57.193Z,31.13
2023-03-08T11:43:31.023Z,31.02
2023-03-08T11:46:18.922Z,25.88
2023-03-08T11:49:01.910Z,25.52
2023-03-08T11:51:33.152Z,25.42
2023-03-08T11:54:22.376Z,23.83
2023-03-08T11:56:55.890Z,31.58
2023-03-08T11:59:34.376Z,25.02
2023-03-08T12:02:12.495Z,21.42
2023-03-08T12:04:59.282Z,23.00
2023-03-08T12:07:38.912Z,22.42
2023-03-08T12:10:25.479Z,22.90
2023-03-08T12:13:11.296Z,27.88
2023-03-08T12:15:52.794Z,27.77
